Mudcat — WCY8255 — position and weather

sailwx.info

Track history (hours):
 
Tides and Currents Weather Stations Pressure Air Temp Water Temp Dewpoint Dewpoint Depression Visibility Wind Speed Wind Dir Waves Ship Positions

Mudcat

Owner: TAURUS MARINE, SAN FRANCISCO, CA. More information available from US FCC via Universal Licensing System and Coast Guard Vessel Documentation Center.

Last reported at 2017-Jun-24 10:27 UTC. Time now 2017-Sep-20 18:44 UTC.
Position N 47°34' W 122°21'.
Warning: this ship's position is months out of date.

Length 22 m; draft 2 m.

Type: Tug. MMSI: 366969750.

Date/timePositionNaut miles runAvg speedWind from/ knotsBaromVisibWave heightAir tempDewpointWater temp
2017-Jun-24 10:27N 47°34' W 122°21'1 2.8
2017-Jun-24 10:00N 47°35' W 122°22'4 8.8
2017-Jun-24 09:30N 47°39' W 122°26'5 9.0
2017-Jun-24 09:00N 47°43' W 122°27'5 9.3
2017-Jun-24 08:30N 47°48' W 122°28'4 8.6
2017-Jun-24 08:00N 47°52' W 122°29'8 9.0
2017-Jun-24 07:07N 47°58' W 122°36'1 8.5
2017-Jun-24 07:00N 47°59' W 122°37'4 7.9
2017-Jun-24 06:27N 48°03' W 122°40'4 7.8
2017-Jun-24 06:00N 48°07' W 122°41'6 8.0
2017-Jun-24 05:15N 48°11' W 122°47'2 7.6
2017-Jun-24 05:00N 48°12' W 122°49'5 9.4
2017-Jun-24 04:27N 48°18' W 122°48'7 8.5
2017-Jun-24 03:39N 48°24' W 122°44'2 8.3
2017-Jun-24 03:27N 48°26' W 122°44'4 9.1
2017-Jun-24 03:00N 48°30' W 122°43'5 9.6
2017-Jun-24 02:30N 48°34' W 122°40'4 8.8
2017-Jun-24 02:00N 48°37' W 122°36'5 8.5
2017-Jun-24 01:24N 48°42' W 122°32'2 4.2
2017-Jun-24 00:59N 48°43' W 122°31'0 0.6
2017-Jun-24 00:20N 48°44' W 122°31'0 0.1
2017-Jun-23 23:58N 48°44' W 122°31'0 0.2
2017-Jun-23 23:30N 48°44' W 122°31'0 0.2
2017-Jun-23 22:48N 48°44' W 122°32'1 1.7
2017-Jun-23 22:30N 48°43' W 122°32'1 1.5
2017-Jun-23 21:49N 48°42' W 122°32'1 4.7
2017-Jun-23 21:30N 48°41' W 122°33'3 5.3
2017-Jun-23 20:59N 48°38' W 122°34'3 6.0
2017-Jun-23 20:30N 48°36' W 122°38'5 6.0
2017-Jun-23 19:42N 48°32' W 122°41'1 4.9
2017-Jun-23 19:29N 48°31' W 122°42'2 4.8
2017-Jun-23 18:59N 48°29' W 122°43'2 4.5
2017-Jun-23 18:30N 48°27' W 122°44'11 2.5
2017-Jun-23 13:56N 48°16' W 122°47'3 4.8
2017-Jun-23 13:18N 48°13' W 122°47'9 7.8
2017-Jun-23 12:12N 48°06' W 122°39'8 5.6
2017-Jun-23 10:48N 47°59' W 122°35'2 5.8
2017-Jun-23 10:30N 47°58' W 122°33'3 5.5
2017-Jun-23 10:00N 47°56' W 122°30'2 3.3
2017-Jun-23 09:30N 47°55' W 122°29'3 5.7
2017-Jun-23 09:00N 47°52' W 122°28'2 4.3
2017-Jun-23 08:30N 47°50' W 122°27'2 4.5
2017-Jun-23 08:00N 47°48' W 122°26'2 4.2
2017-Jun-23 07:30N 47°46' W 122°26'2 3.8
2017-Jun-23 07:00N 47°44' W 122°26'2 4.1
2017-Jun-23 06:30N 47°42' W 122°27'2 4.3
2017-Jun-23 06:00N 47°40' W 122°27'2 4.0
2017-Jun-23 05:30N 47°38' W 122°26'2 4.8
2017-Jun-23 05:00N 47°36' W 122°23'1 2.4
2017-Jun-23 04:30N 47°35' W 122°22'1 2.9
2017-Jun-23 04:00N 47°35' W 122°24'5 9.5
2017-Jun-23 03:31N 47°32' W 122°29'5 9.9
2017-Jun-23 03:00N 47°27' W 122°31'510.4
2017-Jun-23 02:30N 47°22' W 122°32'4 9.0
2017-Jun-23 02:00N 47°18' W 122°28'3 6.1
2017-Jun-23 01:30N 47°16' W 122°25'1 1.7
2017-Jun-23 00:59N 47°17' W 122°25'0 0.1
2017-Jun-23 00:22N 47°17' W 122°25'0 0.1
2017-Jun-22 23:45N 47°17' W 122°25'0 0.1
2017-Jun-22 23:17N 47°17' W 122°25'0 0.0
2017-Jun-22 22:53N 47°17' W 122°25'0 0.7
2017-Jun-22 22:29N 47°17' W 122°25'1 1.0
2017-Jun-22 21:48N 47°16' W 122°25'2 7.3
2017-Jun-22 21:30N 47°18' W 122°27'4 8.9
2017-Jun-22 21:00N 47°22' W 122°24'4 8.9
2017-Jun-22 20:30N 47°26' W 122°23'510.9
2017-Jun-22 20:00N 47°32' W 122°25'5 9.7
2017-Jun-22 19:30N 47°36' W 122°26'4 8.9
2017-Jun-22 19:00N 47°41' W 122°25'1 2.5
2017-Jun-22 18:30N 47°40' W 122°24'1 2.9
2017-Jun-22 18:00N 47°39' W 122°22'  
Track history (hours):
 
Tides and Currents Weather Stations Pressure Air Temp Water Temp Dewpoint Dewpoint Depression Visibility Wind Speed Wind Dir Waves Ship Positions

Mudcat

Owner: TAURUS MARINE, SAN FRANCISCO, CA. More information available from US FCC via Universal Licensing System and Coast Guard Vessel Documentation Center.

Last reported at 2017-Jun-24 10:27 UTC. Time now 2017-Sep-20 18:44 UTC.
Position N 47°34' W 122°21'.
Warning: this ship's position is months out of date.

Length 22 m; draft 2 m.

Type: Tug. MMSI: 366969750.

Date/timePositionNaut miles runAvg speedWind from/ knotsBaromVisibWave heightAir tempDewpointWater temp
2017-Jun-24 10:27N 47°34' W 122°21'1 2.8
2017-Jun-24 10:00N 47°35' W 122°22'4 8.8
2017-Jun-24 09:30N 47°39' W 122°26'5 9.0
2017-Jun-24 09:00N 47°43' W 122°27'5 9.3
2017-Jun-24 08:30N 47°48' W 122°28'4 8.6
2017-Jun-24 08:00N 47°52' W 122°29'8 9.0
2017-Jun-24 07:07N 47°58' W 122°36'1 8.5
2017-Jun-24 07:00N 47°59' W 122°37'4 7.9
2017-Jun-24 06:27N 48°03' W 122°40'4 7.8
2017-Jun-24 06:00N 48°07' W 122°41'6 8.0
2017-Jun-24 05:15N 48°11' W 122°47'2 7.6
2017-Jun-24 05:00N 48°12' W 122°49'5 9.4
2017-Jun-24 04:27N 48°18' W 122°48'7 8.5
2017-Jun-24 03:39N 48°24' W 122°44'2 8.3
2017-Jun-24 03:27N 48°26' W 122°44'4 9.1
2017-Jun-24 03:00N 48°30' W 122°43'5 9.6
2017-Jun-24 02:30N 48°34' W 122°40'4 8.8
2017-Jun-24 02:00N 48°37' W 122°36'5 8.5
2017-Jun-24 01:24N 48°42' W 122°32'2 4.2
2017-Jun-24 00:59N 48°43' W 122°31'0 0.6
2017-Jun-24 00:20N 48°44' W 122°31'0 0.1
2017-Jun-23 23:58N 48°44' W 122°31'0 0.2
2017-Jun-23 23:30N 48°44' W 122°31'0 0.2
2017-Jun-23 22:48N 48°44' W 122°32'1 1.7
2017-Jun-23 22:30N 48°43' W 122°32'1 1.5
2017-Jun-23 21:49N 48°42' W 122°32'1 4.7
2017-Jun-23 21:30N 48°41' W 122°33'3 5.3
2017-Jun-23 20:59N 48°38' W 122°34'3 6.0
2017-Jun-23 20:30N 48°36' W 122°38'5 6.0
2017-Jun-23 19:42N 48°32' W 122°41'1 4.9
2017-Jun-23 19:29N 48°31' W 122°42'2 4.8
2017-Jun-23 18:59N 48°29' W 122°43'2 4.5
2017-Jun-23 18:30N 48°27' W 122°44'11 2.5
2017-Jun-23 13:56N 48°16' W 122°47'3 4.8
2017-Jun-23 13:18N 48°13' W 122°47'9 7.8
2017-Jun-23 12:12N 48°06' W 122°39'8 5.6
2017-Jun-23 10:48N 47°59' W 122°35'2 5.8
2017-Jun-23 10:30N 47°58' W 122°33'3 5.5
2017-Jun-23 10:00N 47°56' W 122°30'2 3.3
2017-Jun-23 09:30N 47°55' W 122°29'3 5.7
2017-Jun-23 09:00N 47°52' W 122°28'2 4.3
2017-Jun-23 08:30N 47°50' W 122°27'2 4.5
2017-Jun-23 08:00N 47°48' W 122°26'2 4.2
2017-Jun-23 07:30N 47°46' W 122°26'2 3.8
2017-Jun-23 07:00N 47°44' W 122°26'2 4.1
2017-Jun-23 06:30N 47°42' W 122°27'2 4.3
2017-Jun-23 06:00N 47°40' W 122°27'2 4.0
2017-Jun-23 05:30N 47°38' W 122°26'2 4.8
2017-Jun-23 05:00N 47°36' W 122°23'1 2.4
2017-Jun-23 04:30N 47°35' W 122°22'1 2.9
2017-Jun-23 04:00N 47°35' W 122°24'5 9.5
2017-Jun-23 03:31N 47°32' W 122°29'5 9.9
2017-Jun-23 03:00N 47°27' W 122°31'510.4
2017-Jun-23 02:30N 47°22' W 122°32'4 9.0
2017-Jun-23 02:00N 47°18' W 122°28'3 6.1
2017-Jun-23 01:30N 47°16' W 122°25'1 1.7
2017-Jun-23 00:59N 47°17' W 122°25'0 0.1
2017-Jun-23 00:22N 47°17' W 122°25'0 0.1
2017-Jun-22 23:45N 47°17' W 122°25'0 0.1
2017-Jun-22 23:17N 47°17' W 122°25'0 0.0
2017-Jun-22 22:53N 47°17' W 122°25'0 0.7
2017-Jun-22 22:29N 47°17' W 122°25'1 1.0
2017-Jun-22 21:48N 47°16' W 122°25'2 7.3
2017-Jun-22 21:30N 47°18' W 122°27'4 8.9
2017-Jun-22 21:00N 47°22' W 122°24'4 8.9
2017-Jun-22 20:30N 47°26' W 122°23'510.9
2017-Jun-22 20:00N 47°32' W 122°25'5 9.7
2017-Jun-22 19:30N 47°36' W 122°26'4 8.9
2017-Jun-22 19:00N 47°41' W 122°25'1 2.5
2017-Jun-22 18:30N 47°40' W 122°24'1 2.9
2017-Jun-22 18:00N 47°39' W 122°22'  

Dump ship's entire track history